Time;durP1;ratioP1;P1;durP2;ratioP2;P2;SDS_P1;SDS_P2;PMS_P1;PMS_P2;Temp;Humidity;BMP_temperature;BMP_pressure;BME280_temperature;BME280_humidity;BME280_pressure;Samples;Min_cycle;Max_cycle;Signal;HPM_P1;HPM_P2
2022/12/15 05:33:30;;;;;;;42.17;28.48;;;;;;;3.50;94.79;99708.47;5583406;31;34277;-54
2022/12/15 05:36:33;;;;;;;46.25;27.45;;;;;;;3.32;78.33;99730.81;5583370;31;33774;-54
2022/12/15 05:39:35;;;;;;;51.00;29.00;;;;;;;3.32;76.61;99744.06;5583481;31;33682;-54
2022/12/15 05:42:37;;;;;;;47.70;30.45;;;;;;;3.30;91.60;99744.28;5583568;32;33611;-54
2022/12/15 05:45:40;;;;;;;52.80;30.60;;;;;;;3.15;78.25;99741.50;5576721;31;34286;-54
2022/12/15 05:48:42;;;;;;;41.10;28.40;;;;;;;3.24;79.87;99736.53;5582349;32;33694;-55
2022/12/15 05:51:46;;;;;;;42.10;28.60;;;;;;;3.11;76.19;99740.34;5580899;31;33775;-54
2022/12/15 05:54:48;;;;;;;46.30;31.05;;;;;;;3.22;76.05;99746.59;5582747;32;34153;-54
2022/12/15 05:57:52;;;;;;;47.78;28.75;;;;;;;3.15;76.80;99765.31;5582219;31;33716;-54
2022/12/15 06:01:02;;;;;;;52.28;31.60;;;;;;;3.27;75.31;99779.22;5581246;32;33729;-54
2022/12/15 06:04:06;;;;;;;51.70;30.25;;;;;;;3.20;76.02;99791.06;5565234;32;33778;-54
2022/12/15 06:07:08;;;;;;;56.00;31.12;;;;;;;3.26;86.93;99798.03;5569706;32;33099;-54
2022/12/15 06:10:10;;;;;;;52.03;31.52;;;;;;;3.42;90.59;99794.53;5569880;32;33634;-54
2022/12/15 06:13:12;;;;;;;48.85;31.20;;;;;;;3.34;77.45;99789.63;5567714;32;34209;-54
2022/12/15 06:16:17;;;;;;;49.33;31.15;;;;;;;3.50;79.52;99809.19;5565989;32;34320;-54
2022/12/15 06:19:20;;;;;;;47.62;31.10;;;;;;;3.47;75.84;99809.66;5565679;32;33659;-54
2022/12/15 06:22:22;;;;;;;50.70;30.95;;;;;;;3.52;81.51;99812.41;5568785;32;33707;-54
2022/12/15 06:25:24;;;;;;;54.33;31.27;;;;;;;3.46;77.99;99821.31;5566180;32;33276;-54
2022/12/15 06:28:28;;;;;;;48.58;31.40;;;;;;;3.46;80.16;99816.81;5564183;32;33643;-54
2022/12/15 06:31:31;;;;;;;57.20;30.80;;;;;;;3.74;88.97;99818.50;5566440;32;34376;-54
2022/12/15 06:34:34;;;;;;;51.33;30.67;;;;;;;3.62;78.67;99827.63;5567159;32;33650;-54
2022/12/15 06:37:36;;;;;;;51.15;30.70;;;;;;;3.65;77.17;99835.06;5565419;32;33634;-54
2022/12/15 06:40:39;;;;;;;50.28;30.85;;;;;;;3.68;81.09;99832.72;5567663;32;33644;-54
2022/12/15 06:43:42;;;;;;;52.00;30.48;;;;;;;3.64;79.77;99828.16;5558796;32;33807;-54
2022/12/15 06:46:45;;;;;;;56.40;31.80;;;;;;;3.67;78.73;99825.81;5561664;32;33744;-54
2022/12/15 06:49:47;;;;;;;60.30;31.60;;;;;;;3.67;76.76;99831.09;5567959;32;34438;-54
2022/12/15 06:52:49;;;;;;;53.33;32.28;;;;;;;3.82;84.11;99843.75;5566025;32;34288;-54
2022/12/15 06:55:52;;;;;;;60.45;32.13;;;;;;;4.11;88.67;99838.22;5565832;32;34322;-55
2022/12/15 06:58:54;;;;;;;60.35;36.08;;;;;;;4.15;80.40;99856.03;5564398;32;34111;-54
2022/12/15 07:01:57;;;;;;;59.50;31.95;;;;;;;4.12;91.23;99858.38;5568320;32;34339;-54
2022/12/15 07:04:59;;;;;;;51.08;30.27;;;;;;;4.23;98.48;99852.91;5567519;32;34282;-54
2022/12/15 07:08:02;;;;;;;52.03;30.88;;;;;;;4.64;87.90;99860.44;5567037;32;34280;-54
2022/12/15 07:11:09;;;;;;;49.78;30.75;;;;;;;4.40;78.56;99868.75;5567634;32;33781;-54
2022/12/15 07:14:11;;;;;;;57.55;27.30;;;;;;;4.21;75.21;99886.87;5566398;32;34265;-54
2022/12/15 07:17:13;;;;;;;42.58;29.17;;;;;;;4.21;79.56;99902.78;5567927;32;33714;-54
2022/12/15 07:20:16;;;;;;;43.53;27.70;;;;;;;4.19;76.12;99904.88;5567499;32;33622;-54
2022/12/15 07:23:19;;;;;;;41.70;28.27;;;;;;;4.24;85.99;99898.84;5567503;32;33193;-54
2022/12/15 07:26:46;;;;;;;44.70;28.75;;;;;;;4.74;97.59;99888.94;5565564;32;33925;-54
2022/12/15 07:29:51;;;;;;;44.95;29.33;;;;;;;4.65;80.88;99905.31;5550183;32;34400;-54
2022/12/15 07:32:53;;;;;;;56.40;30.92;;;;;;;4.58;81.12;99904.72;5568754;32;34821;-54
2022/12/15 07:35:55;;;;;;;48.45;31.00;;;;;;;4.77;85.62;99904.34;5567666;32;33738;-54
2022/12/15 07:38:59;;;;;;;53.85;32.67;;;;;;;4.76;85.31;99903.53;5568723;32;34207;-54
2022/12/15 07:42:02;;;;;;;57.03;31.02;;;;;;;4.60;78.83;99917.75;5566605;32;33922;-56
2022/12/15 07:45:06;;;;;;;45.12;27.95;;;;;;;4.40;73.85;99929.78;5564677;32;33820;-55
2022/12/15 07:48:08;;;;;;;47.40;28.20;;;;;;;4.50;86.80;99923.75;5562006;32;34492;-55
2022/12/15 07:51:10;;;;;;;47.47;29.52;;;;;;;4.76;88.21;99919.47;5565167;32;33952;-54
2022/12/15 07:54:21;;;;;;;46.80;29.15;;;;;;;4.53;74.88;99925.09;5565011;32;34316;-54
2022/12/15 07:57:23;;;;;;;52.10;31.30;;;;;;;4.55;88.37;99930.97;5565692;32;33637;-54
2022/12/15 08:00:26;;;;;;;45.22;30.70;;;;;;;4.42;84.25;99946.25;5563591;32;34363;-54
2022/12/15 08:03:29;;;;;;;50.42;30.50;;;;;;;4.91;86.66;99935.56;5563798;32;33686;-54
2022/12/15 08:06:32;;;;;;;45.78;30.30;;;;;;;4.61;75.92;99930.78;5551294;32;33636;-56
2022/12/15 08:09:35;;;;;;;54.20;29.87;;;;;;;4.57;74.39;99942.97;5565338;32;33893;-54
2022/12/15 08:12:38;;;;;;;48.05;31.10;;;;;;;4.66;87.00;99937.97;5566787;32;34475;-54
2022/12/15 08:15:40;;;;;;;43.85;28.90;;;;;;;4.78;89.26;99956.41;5567691;32;33790;-54
2022/12/15 08:18:42;;;;;;;45.70;30.33;;;;;;;4.57;85.80;99948.25;5564887;32;34238;-54
2022/12/15 08:21:45;;;;;;;45.12;29.45;;;;;;;4.56;78.10;99961.78;5565495;32;32188;-54
2022/12/15 08:24:48;;;;;;;46.33;28.92;;;;;;;4.59;84.22;99967.38;5560919;32;34238;-54
2022/12/15 08:27:51;;;;;;;45.35;29.48;;;;;;;4.55;81.60;99968.94;5561774;32;33706;-54
2022/12/15 08:30:53;;;;;;;44.05;28.73;;;;;;;4.39;74.43;99975.12;5563300;32;33731;-54
2022/12/15 08:33:56;;;;;;;48.10;30.12;;;;;;;4.53;91.76;99979.00;5566981;32;33601;-54
2022/12/15 08:36:58;;;;;;;43.00;29.02;;;;;;;4.83;82.95;99972.38;5561212;32;33582;-55
2022/12/15 08:40:02;;;;;;;44.95;29.40;;;;;;;5.01;87.92;99977.34;5557907;32;33622;-54
2022/12/15 08:43:04;;;;;;;45.30;29.48;;;;;;;5.25;91.34;99983.09;5565666;32;33967;-55
2022/12/15 08:46:07;;;;;;;42.47;30.75;;;;;;;4.72;78.42;99976.81;5566018;32;33719;-55
2022/12/15 08:49:09;;;;;;;43.92;30.52;;;;;;;5.15;91.64;99983.81;5560290;32;33565;-55
2022/12/15 08:52:12;;;;;;;50.03;30.67;;;;;;;4.89;90.01;99982.00;5553916;32;33296;-55
2022/12/15 08:55:14;;;;;;;48.30;32.45;;;;;;;4.62;76.83;99985.47;5557191;32;33562;-55
2022/12/15 08:58:23;;;;;;;49.05;32.03;;;;;;;4.53;81.36;99999.44;5560257;32;33623;-55
2022/12/15 09:01:28;;;;;;;49.83;32.90;;;;;;;4.46;74.16;100013.69;5564028;32;34017;-54
2022/12/15 09:04:31;;;;;;;47.53;30.02;;;;;;;4.43;79.74;100008.88;5561095;32;33908;-55
2022/12/15 09:07:34;;;;;;;44.97;31.15;;;;;;;4.58;89.23;100016.22;5559433;32;33814;-55
2022/12/15 09:10:40;;;;;;;47.70;31.20;;;;;;;4.63;90.56;100003.00;5564307;32;34375;-54
2022/12/15 09:13:43;;;;;;;41.40;30.30;;;;;;;5.05;97.11;99996.22;5561202;32;33336;-54
2022/12/15 09:16:45;;;;;;;44.95;30.92;;;;;;;5.25;88.90;99991.06;5564622;32;34277;-54
2022/12/15 09:19:51;;;;;;;45.33;31.87;;;;;;;4.99;73.85;99982.09;5549292;32;34231;-54
2022/12/15 09:22:54;;;;;;;44.70;31.60;;;;;;;4.80;72.99;99996.78;5559213;32;33905;-54
2022/12/15 09:26:00;;;;;;;45.53;30.23;;;;;;;4.66;73.77;100001.69;5565467;32;34275;-54
2022/12/15 09:29:02;;;;;;;;;;;;;;;4.88;87.61;99996.34;5566504;32;33675;-54
2022/12/15 09:32:04;;;;;;;45.88;30.67;;;;;;;4.99;82.78;99987.41;5565175;32;34603;-55
2022/12/15 09:35:16;;;;;;;45.70;30.25;;;;;;;4.92;73.69;99990.25;5562704;32;33761;-55
2022/12/15 09:38:18;;;;;;;54.78;31.85;;;;;;;4.88;77.59;99983.06;5565275;32;34160;-54
2022/12/15 09:41:26;;;;;;;51.92;32.97;;;;;;;5.30;94.75;99977.03;5567696;32;34258;-54
2022/12/15 09:44:30;;;;;;;46.55;30.15;;;;;;;5.32;78.59;99981.03;5569965;32;33424;-54
2022/12/15 09:47:45;;;;;;;48.58;30.37;;;;;;;5.63;91.72;99992.69;5568863;32;33547;-55
2022/12/15 09:50:51;;;;;;;53.53;31.77;;;;;;;5.50;79.05;99995.78;5569038;32;33093;-54
2022/12/15 09:53:54;;;;;;;54.90;32.38;;;;;;;5.81;88.74;99993.31;5564916;32;34299;-54
2022/12/15 09:57:04;;;;;;;54.80;33.20;;;;;;;5.95;84.79;99986.47;5567940;32;34232;-54
2022/12/15 10:00:10;;;;;;;48.33;30.98;;;;;;;6.12;89.22;99997.75;5567319;32;33746;-54
2022/12/15 10:04:08;;;;;;;51.83;33.38;;;;;;;6.11;89.30;99993.47;5551082;32;34540;-54
2022/12/15 10:07:28;;;;;;;50.05;32.40;;;;;;;5.61;77.22;100010.75;5469919;32;34560;-55
2022/12/15 10:10:55;;;;;;;57.38;33.75;;;;;;;5.28;74.22;100011.03;5566424;32;33906;-54
2022/12/15 10:14:01;;;;;;;55.33;33.88;;;;;;;5.13;73.62;100004.56;5567649;32;34080;-54
2022/12/15 10:17:27;;;;;;;56.50;35.28;;;;;;;5.03;75.58;100011.59;5568617;32;33374;-54
2022/12/15 10:20:31;;;;;;;53.17;33.22;;;;;;;5.36;85.35;100007.91;5567703;32;33737;-54
2022/12/15 10:23:36;;;;;;;53.22;33.88;;;;;;;5.50;85.36;100003.75;5555087;32;33670;-56
2022/12/15 10:26:41;;;;;;;55.58;34.17;;;;;;;5.40;79.79;99999.16;5567847;32;33696;-55
2022/12/15 10:30:04;;;;;;;63.97;36.63;;;;;;;5.23;74.16;100008.31;5568857;32;33779;-54
2022/12/15 10:33:27;;;;;;;51.47;32.20;;;;;;;5.16;77.05;99997.91;5566205;32;33750;-56
2022/12/15 10:36:30;;;;;;;57.10;35.45;;;;;;;5.49;79.48;99996.03;5566364;32;33615;-55
2022/12/15 10:39:41;;;;;;;53.83;33.00;;;;;;;5.70;83.34;99991.66;5568372;32;33841;-54
2022/12/15 10:42:48;;;;;;;58.87;33.95;;;;;;;5.61;89.06;99999.31;5563124;32;33769;-55
2022/12/15 10:46:10;;;;;;;59.65;35.05;;;;;;;6.00;96.06;99993.72;5567506;32;33235;-54
2022/12/15 10:49:13;;;;;;;58.58;35.80;;;;;;;5.93;79.69;99995.78;5565798;32;33752;-54
2022/12/15 10:52:22;;;;;;;57.17;36.58;;;;;;;5.97;92.05;99981.72;5563495;32;35369;-54
2022/12/15 10:55:42;;;;;;;63.17;38.15;;;;;;;5.64;79.51;99977.53;5567302;32;33847;-55
2022/12/15 10:58:56;;;;;;;65.87;36.53;;;;;;;5.47;72.39;99988.31;5566577;32;33757;-55
2022/12/15 11:02:27;;;;;;;55.35;34.15;;;;;;;5.30;73.29;99980.50;5567678;32;34014;-54
2022/12/15 11:05:29;;;;;;;56.35;35.05;;;;;;;5.49;81.75;99983.53;5567174;32;33820;-54
2022/12/15 11:08:32;;;;;;;57.47;36.50;;;;;;;5.41;73.69;99989.34;5567672;32;34639;-55
2022/12/15 11:15:21;;;;;;;59.08;34.15;;;;;;;5.50;80.80;100001.09;5568282;32;33437;-55
2022/12/15 11:18:49;;;;;;;62.30;37.50;;;;;;;5.76;88.33;100004.72;5565722;32;33709;-55
2022/12/15 11:21:58;;;;;;;64.53;36.67;;;;;;;5.51;72.71;99996.59;5563940;32;33731;-54
2022/12/15 11:25:19;;;;;;;64.75;36.30;;;;;;;5.73;85.61;99991.94;5559867;32;33134;-54
2022/12/15 11:28:50;;;;;;;58.58;36.55;;;;;;;5.54;73.19;99993.41;5567609;32;33304;-56
2022/12/15 11:31:54;;;;;;;60.25;36.30;;;;;;;5.58;80.57;99984.66;5565728;32;34326;-55
2022/12/15 11:34:56;;;;;;;59.53;36.08;;;;;;;5.60;74.54;99993.19;5566251;32;33837;-53
2022/12/15 11:38:25;;;;;;;62.62;36.33;;;;;;;5.49;75.64;99991.50;5564111;32;32928;-54
2022/12/15 11:42:01;;;;;;;64.87;36.38;;;;;;;5.49;72.71;99988.06;5563906;32;33954;-55
2022/12/15 11:45:21;;;;;;;65.55;37.25;;;;;;;5.69;84.86;99987.38;5559802;32;34442;-55
2022/12/15 11:48:47;;;;;;;59.45;36.85;;;;;;;5.51;73.24;99993.94;5566346;32;34272;-55
2022/12/15 11:51:58;;;;;;;60.65;37.00;;;;;;;5.45;74.52;100009.03;5554829;32;33832;-55
2022/12/15 11:55:29;;;;;;;64.37;37.17;;;;;;;5.33;75.07;100011.06;5566643;32;34472;-56
2022/12/15 11:58:55;;;;;;;56.80;35.28;;;;;;;5.32;74.24;100006.81;5560706;32;33749;-55
2022/12/15 12:02:09;;;;;;;64.22;37.17;;;;;;;5.32;75.16;100009.47;5557099;32;34556;-55
2022/12/15 12:05:24;;;;;;;61.40;36.78;;;;;;;5.32;74.27;100004.16;5556943;32;33775;-54
2022/12/15 12:08:41;;;;;;;63.13;38.55;;;;;;;5.36;74.75;100008.72;5561172;32;33860;-54
2022/12/15 12:12:10;;;;;;;64.75;39.00;;;;;;;5.37;74.04;100012.19;5560178;32;33390;-55
2022/12/15 12:15:12;;;;;;;64.00;36.90;;;;;;;5.41;73.73;100003.44;5560386;32;33694;-55
2022/12/15 12:18:41;;;;;;;59.30;36.80;;;;;;;5.39;73.74;100008.19;5563722;32;33406;-54
2022/12/15 12:21:49;;;;;;;59.40;37.30;;;;;;;5.36;75.38;100011.38;5565235;32;34578;-55
2022/12/15 12:25:16;;;;;;;61.50;37.90;;;;;;;5.34;77.07;100000.19;5564069;32;33721;-54
2022/12/15 12:28:24;;;;;;;62.55;35.22;;;;;;;5.46;75.51;100000.00;5553767;32;34363;-54
2022/12/15 12:31:45;;;;;;;63.40;38.47;;;;;;;5.52;90.85;99988.34;5565357;32;34447;-54
2022/12/15 12:35:05;;;;;;;66.30;39.13;;;;;;;5.42;80.78;99981.09;5562581;32;33692;-55
2022/12/15 12:38:32;;;;;;;63.83;36.72;;;;;;;5.40;77.57;99988.53;5557423;32;33446;-54
2022/12/15 12:42:05;;;;;;;67.45;38.85;;;;;;;5.78;92.95;99993.81;5558206;32;33734;-54
2022/12/15 12:45:12;;;;;;;64.25;37.97;;;;;;;5.65;75.77;99992.41;5563578;32;33650;-54
2022/12/15 12:48:21;;;;;;;;;;;;;;;5.56;75.04;99993.94;5562091;32;34414;-55
2022/12/15 12:51:30;;;;;;;62.60;37.92;;;;;;;5.51;77.09;99992.06;5560627;32;34305;-54
2022/12/15 12:54:35;;;;;;;61.97;37.03;;;;;;;5.49;76.56;99990.72;5557695;32;34007;-54
2022/12/15 12:57:42;;;;;;;68.30;39.78;;;;;;;5.57;91.47;99987.59;5559579;32;33508;-54
2022/12/15 13:01:02;;;;;;;;;;;;;;;5.50;78.35;100000.31;5567552;32;33794;-54
2022/12/15 13:04:09;;;;;;;64.30;38.40;;;;;;;5.60;76.86;100008.34;5564633;32;33972;-54
2022/12/15 13:07:31;;;;;;;62.55;38.40;;;;;;;5.59;82.48;99996.88;5548716;32;33710;-54
2022/12/15 13:10:42;;;;;;;88.97;59.35;;;;;;;5.68;85.95;100010.53;5556151;32;34379;-54
2022/12/15 13:13:45;;;;;;;74.43;44.28;;;;;;;5.50;77.62;100022.38;5558933;32;34422;-54
2022/12/15 13:16:56;;;;;;;74.30;40.17;;;;;;;5.46;77.65;100020.47;5566220;32;33703;-54
2022/12/15 13:20:29;;;;;;;69.35;39.15;;;;;;;5.48;78.91;100026.34;5552637;32;33814;-54
2022/12/15 13:23:35;;;;;;;66.32;39.95;;;;;;;5.52;77.16;100027.41;5550473;32;33380;-54
2022/12/15 13:26:43;;;;;;;68.55;40.78;;;;;;;5.54;81.31;100026.13;5565263;32;33634;-55
2022/12/15 13:30:07;;;;;;;65.03;39.13;;;;;;;5.84;88.66;100020.19;5563298;32;34330;-56
2022/12/15 13:33:16;;;;;;;75.20;41.25;;;;;;;6.03;87.55;100019.81;5564760;32;35812;-55
2022/12/15 13:36:40;;;;;;;77.07;41.80;;;;;;;5.79;90.21;100017.50;5567691;32;33914;-54
2022/12/15 13:39:55;;;;;;;65.62;40.03;;;;;;;5.79;82.29;100022.81;5559754;32;33909;-54
2022/12/15 13:43:30;;;;;;;59.67;37.58;;;;;;;5.69;84.59;100033.37;5568512;32;34402;-55
2022/12/15 13:46:34;;;;;;;68.45;39.38;;;;;;;5.64;81.47;100034.16;5550211;32;34414;-54
2022/12/15 13:50:01;;;;;;;67.65;39.88;;;;;;;5.52;91.94;100030.87;5550817;32;33997;-54
2022/12/15 13:53:12;;;;;;;70.90;40.85;;;;;;;5.83;90.63;100031.09;5560741;32;33763;-54
2022/12/15 13:56:48;;;;;;;69.12;41.15;;;;;;;5.47;82.92;100030.06;5569736;32;34421;-54
2022/12/15 14:00:03;;;;;;;67.62;38.58;;;;;;;5.46;88.31;100033.75;5568653;32;33425;-54
2022/12/15 14:03:12;;;;;;;75.97;42.35;;;;;;;5.40;95.90;100035.59;5569223;32;35083;-54
2022/12/15 14:06:15;;;;;;;68.28;41.65;;;;;;;5.44;88.12;100033.22;5568017;32;33748;-55
2022/12/15 14:09:31;;;;;;;71.72;40.60;;;;;;;5.30;84.39;100025.69;5569752;32;34304;-54
2022/12/15 14:12:33;;;;;;;69.62;39.97;;;;;;;5.31;86.43;100023.81;5569572;32;33610;-54
2022/12/15 14:15:41;;;;;;;68.15;40.58;;;;;;;5.24;86.79;100015.25;5562966;32;33729;-54
2022/12/15 14:19:01;;;;;;;72.05;40.95;;;;;;;5.25;88.83;100016.84;5561458;32;33610;-54
2022/12/15 14:22:03;;;;;;;79.55;42.62;;;;;;;5.31;86.35;100026.47;5569329;32;34352;-55
2022/12/15 14:25:17;;;;;;;67.78;37.78;;;;;;;5.32;88.00;100028.88;5569792;32;34515;-53
2022/12/15 14:28:25;;;;;;;75.07;42.65;;;;;;;5.54;100.00;100018.12;5569278;32;33581;-54
2022/12/15 14:31:27;;;;;;;74.53;41.92;;;;;;;5.65;93.00;100019.81;5568978;32;33672;-54
2022/12/15 14:34:38;;;;;;;79.68;43.80;;;;;;;5.57;92.46;100012.31;5570011;32;33618;-54
2022/12/15 14:37:42;;;;;;;77.22;43.53;;;;;;;5.70;88.71;100012.94;5567282;32;33826;-55
2022/12/15 14:40:48;;;;;;;72.78;40.12;;;;;;;5.77;88.80;100013.50;5569825;32;33665;-54
2022/12/15 14:43:54;;;;;;;83.20;43.90;;;;;;;5.78;96.98;100015.09;5568254;32;33648;-54
2022/12/15 14:47:22;;;;;;;;;;;;;;;5.69;84.54;100030.72;5568170;32;33694;-55
2022/12/15 14:50:25;;;;;;;76.85;41.13;;;;;;;5.91;100.00;100025.28;5569932;32;34594;-55
2022/12/15 14:53:32;;;;;;;86.37;45.10;;;;;;;5.96;100.00;100027.19;5569191;32;33702;-54
2022/12/15 14:56:34;;;;;;;80.97;43.03;;;;;;;5.72;85.82;100016.91;5569553;32;33615;-54
2022/12/15 14:59:43;;;;;;;81.72;43.13;;;;;;;5.84;91.94;100020.19;5568401;32;33625;-54
2022/12/15 15:02:45;;;;;;;79.00;42.58;;;;;;;5.70;85.46;100047.50;5562430;32;33607;-54
2022/12/15 15:06:02;;;;;;;96.40;56.15;;;;;;;5.79;92.65;100056.59;5567615;32;33753;-54
2022/12/15 15:09:22;;;;;;;74.93;40.72;;;;;;;5.64;96.49;100034.16;5568534;32;33477;-54
2022/12/15 15:12:42;;;;;;;76.90;42.15;;;;;;;5.62;88.86;100051.44;5569924;32;34558;-55
2022/12/15 15:15:55;;;;;;;81.70;42.80;;;;;;;5.83;100.00;100047.06;5569407;32;33720;-54
2022/12/15 15:19:01;;;;;;;78.15;43.25;;;;;;;5.87;96.93;100050.81;5569363;32;33763;-54
2022/12/15 15:22:04;;;;;;;82.32;43.65;;;;;;;6.17;99.32;100060.84;5569450;32;33692;-55
2022/12/15 15:25:27;;;;;;;84.32;45.63;;;;;;;5.99;100.00;100059.41;5569786;32;33636;-54
2022/12/15 15:28:40;;;;;;;76.90;42.67;;;;;;;5.92;96.00;100028.75;5560619;32;33799;-54
2022/12/15 15:31:43;;;;;;;83.82;43.20;;;;;;;5.73;87.20;100039.00;5550267;32;33849;-55
2022/12/15 15:34:46;;;;;;;81.40;42.55;;;;;;;5.76;90.87;100036.66;5550130;32;33830;-54
2022/12/15 15:37:50;;;;;;;70.22;40.12;;;;;;;5.67;93.03;100037.37;5563886;32;33820;-55
2022/12/15 15:40:55;;;;;;;73.07;40.42;;;;;;;5.86;88.54;100034.06;5568348;32;33665;-54
2022/12/15 15:43:59;;;;;;;78.35;42.33;;;;;;;5.93;100.00;100023.22;5569199;32;34393;-54
2022/12/15 15:47:02;;;;;;;78.43;42.17;;;;;;;5.91;95.96;100021.81;5569415;32;33479;-54
2022/12/15 15:50:05;;;;;;;71.47;40.40;;;;;;;6.01;94.80;100028.03;5569032;32;34271;-54
2022/12/15 15:53:15;;;;;;;74.82;40.15;;;;;;;5.96;92.64;100022.69;5569321;32;33779;-54
2022/12/15 15:56:18;;;;;;;76.10;41.42;;;;;;;5.95;92.92;100022.94;5569204;32;34204;-54
2022/12/15 15:59:21;;;;;;;78.85;40.55;;;;;;;5.98;98.11;100011.78;5569044;32;33793;-54
2022/12/15 16:02:23;;;;;;;72.60;38.70;;;;;;;6.25;100.00;100008.97;5569267;32;33766;-54
2022/12/15 16:05:25;;;;;;;71.03;39.53;;;;;;;6.14;98.21;100007.34;5567091;32;33668;-54
2022/12/15 16:08:32;;;;;;;69.53;38.03;;;;;;;5.84;87.64;100006.91;5569104;32;34236;-53
2022/12/15 16:11:36;;;;;;;67.72;37.60;;;;;;;5.69;87.55;100012.09;5569203;32;33628;-54
2022/12/15 16:14:38;;;;;;;66.87;36.72;;;;;;;5.92;94.00;100021.56;5568791;32;33687;-54
2022/12/15 16:17:41;;;;;;;63.53;38.38;;;;;;;5.91;89.29;100021.81;5561502;32;34411;-54
2022/12/15 16:20:47;;;;;;;64.72;36.20;;;;;;;5.74;85.65;100025.44;5569065;32;33935;-54
2022/12/15 16:23:50;;;;;;;64.97;38.17;;;;;;;5.96;99.06;100020.03;5569180;32;33771;-54
2022/12/15 16:26:52;;;;;;;60.50;34.25;;;;;;;6.19;90.93;100018.00;5568661;32;34486;-54
2022/12/15 16:29:54;;;;;;;59.95;34.00;;;;;;;6.18;94.86;100005.75;5562807;32;33630;-54
2022/12/15 16:32:56;;;;;;;55.95;33.63;;;;;;;6.25;95.38;100009.78;5556072;32;33753;-54
2022/12/15 16:35:59;;;;;;;51.33;33.38;;;;;;;5.88;85.06;100013.28;5557826;32;33609;-55
2022/12/15 16:39:02;;;;;;;54.35;33.80;;;;;;;5.82;91.65;100024.97;5559309;32;33633;-54
2022/12/15 16:42:08;;;;;;;58.17;34.20;;;;;;;5.79;92.39;100016.69;5567388;32;34524;-54
2022/12/15 16:45:15;;;;;;;66.97;44.60;;;;;;;5.71;89.30;100031.28;5550403;32;33780;-54
2022/12/15 16:48:19;;;;;;;55.53;35.78;;;;;;;5.80;90.26;100034.28;5552879;32;34020;-55
2022/12/15 16:51:38;;;;;;;46.80;30.00;;;;;;;5.95;93.67;100030.91;5560211;32;33733;-56
